Time;durP1;ratioP1;P1;durP2;ratioP2;P2;SDS_P1;SDS_P2;PMS_P1;PMS_P2;Temp;Humidity;BMP_temperature;BMP_pressure;BME280_temperature;BME280_humidity;BME280_pressure;Samples;Min_cycle;Max_cycle;Signal;HPM_P1;HPM_P2
2022/10/09 00:01:33;;;;;;;42.92;29.73;;;;;;;8.52;93.35;98047.84;10420795;28;20075;-58
2022/10/09 00:06:34;;;;;;;43.83;30.52;;;;;;;8.41;93.62;98043.41;10420829;28;20032;-58
2022/10/09 00:11:33;;;;;;;39.40;29.83;;;;;;;8.31;93.74;98045.00;10417865;28;20075;-58
2022/10/09 00:16:32;;;;;;;36.33;27.48;;;;;;;8.18;93.90;98043.13;10417365;28;20076;-58
2022/10/09 00:21:32;;;;;;;40.78;27.25;;;;;;;8.20;93.88;98036.22;10417325;28;20063;-58
2022/10/09 00:26:32;;;;;;;36.45;26.90;;;;;;;8.18;94.16;98043.13;10417202;28;20506;-58
2022/10/09 00:31:31;;;;;;;38.75;28.02;;;;;;;8.19;94.29;98040.53;10416224;28;20079;-58
2022/10/09 00:36:30;;;;;;;46.13;30.77;;;;;;;8.04;94.33;98015.38;10416523;28;20063;-59
2022/10/09 00:41:30;;;;;;;48.20;29.67;;;;;;;8.17;94.19;98028.44;10416713;28;20064;-58
2022/10/09 00:46:34;;;;;;;39.80;27.38;;;;;;;8.15;94.03;98030.16;10416483;28;20064;-58
2022/10/09 00:51:33;;;;;;;51.85;34.08;;;;;;;7.95;94.09;98029.91;10415394;28;20068;-59
2022/10/09 00:56:33;;;;;;;52.53;34.60;;;;;;;7.86;94.66;98030.63;10415813;28;20063;-59
2022/10/09 01:01:32;;;;;;;47.65;32.03;;;;;;;7.81;94.74;98019.38;10414953;28;20060;-58
2022/10/09 01:06:31;;;;;;;45.20;29.17;;;;;;;7.76;94.54;98019.28;10415216;28;20051;-58
2022/10/09 01:11:40;;;;;;;50.05;34.58;;;;;;;7.70;94.43;98031.25;10414897;28;20024;-58
2022/10/09 01:17:15;;;;;;;45.75;31.38;;;;;;;7.68;94.17;98025.19;10415800;28;20068;-59
2022/10/09 01:23:01;;;;;;;33.38;25.23;;;;;;;7.67;94.64;98026.91;10392126;28;20078;-58
2022/10/09 01:28:03;;;;;;;30.45;23.55;;;;;;;7.65;94.62;98029.47;10413964;28;20083;-59
2022/10/09 01:33:03;;;;;;;30.80;23.20;;;;;;;7.63;94.37;98028.56;10414369;28;20462;-59
2022/10/09 01:38:03;;;;;;;30.40;23.70;;;;;;;7.56;94.45;98036.19;10413325;28;20503;-59
2022/10/09 01:43:03;;;;;;;31.92;23.70;;;;;;;7.54;94.34;98027.56;10414496;28;20529;-59
2022/10/09 01:48:02;;;;;;;;;;;;;;;7.51;94.17;98038.72;10414399;28;20135;-58
2022/10/09 01:53:07;;;;;;;32.03;22.15;;;;;;;7.47;94.37;98036.91;10412803;28;20034;-59
2022/10/09 01:58:16;;;;;;;29.00;21.40;;;;;;;7.46;94.32;98035.19;10413495;28;20460;-59
2022/10/09 02:03:16;;;;;;;33.55;23.92;;;;;;;7.43;94.16;98036.03;10412860;28;20072;-58
2022/10/09 02:08:18;;;;;;;37.15;25.90;;;;;;;7.41;94.64;98045.44;10412292;28;20068;-59
2022/10/09 02:13:17;;;;;;;35.67;24.38;;;;;;;7.38;93.92;98047.97;10412300;28;20064;-59
2022/10/09 02:18:20;;;;;;;;;;;;;;;7.36;93.88;98043.63;10412760;28;20516;-58
2022/10/09 02:23:21;;;;;;;31.50;20.38;;;;;;;7.36;94.07;98049.66;10410362;28;19964;-58
2022/10/09 02:28:21;;;;;;;34.35;23.63;;;;;;;7.33;94.18;98043.53;10411772;28;20064;-59
2022/10/09 02:33:25;;;;;;;41.08;26.90;;;;;;;7.30;94.66;98053.84;10413052;28;20076;-59
2022/10/09 02:38:24;;;;;;;37.92;25.27;;;;;;;7.24;94.20;98055.47;10411679;28;20075;-58
2022/10/09 02:43:23;;;;;;;37.83;25.30;;;;;;;7.19;94.28;98053.63;10411670;28;20028;-59
2022/10/09 02:48:22;;;;;;;35.10;25.23;;;;;;;7.15;94.36;98054.44;10411187;28;20064;-58
2022/10/09 02:53:21;;;;;;;34.95;25.98;;;;;;;7.10;93.75;98056.94;10411700;28;20067;-59
2022/10/09 02:58:20;;;;;;;43.10;34.15;;;;;;;6.99;94.17;98072.22;10411564;28;20036;-58
2022/10/09 03:03:20;;;;;;;53.70;38.50;;;;;;;6.88;93.48;98070.28;10416336;28;20530;-59
2022/10/09 03:08:19;;;;;;;42.00;30.13;;;;;;;6.77;94.03;98075.22;10419830;28;20070;-59
2022/10/09 03:13:18;;;;;;;32.78;24.15;;;;;;;6.67;93.92;98069.03;10419389;28;20119;-58
2022/10/09 03:18:17;;;;;;;28.48;21.63;;;;;;;6.61;93.67;98074.09;10418945;28;20128;-59
2022/10/09 03:23:16;;;;;;;31.73;21.35;;;;;;;6.59;93.06;98078.34;10419070;28;20068;-58
2022/10/09 03:28:15;;;;;;;25.83;21.17;;;;;;;6.53;93.66;98078.22;10418787;28;20053;-59
2022/10/09 03:33:14;;;;;;;28.63;22.08;;;;;;;6.51;93.08;98079.88;10417994;28;20039;-59
2022/10/09 03:38:13;;;;;;;25.35;20.25;;;;;;;6.48;93.98;98087.56;10418464;28;20040;-59
2022/10/09 03:43:12;;;;;;;23.17;19.20;;;;;;;6.42;93.62;98079.69;10379366;28;20065;-59
2022/10/09 03:48:12;;;;;;;25.25;19.35;;;;;;;6.42;93.54;98074.53;10377030;28;20590;-58
2022/10/09 03:53:11;;;;;;;36.53;30.10;;;;;;;6.39;94.11;98076.22;10377327;28;20069;-58
2022/10/09 03:58:10;;;;;;;28.77;24.65;;;;;;;6.37;93.65;98082.19;10376036;28;20510;-59
2022/10/09 04:03:09;;;;;;;27.05;21.23;;;;;;;6.31;93.96;98088.09;10376871;28;20471;-59
2022/10/09 04:08:08;;;;;;;29.67;22.83;;;;;;;6.25;93.64;98092.22;10399907;28;20063;-59
2022/10/09 04:13:07;;;;;;;28.02;22.77;;;;;;;6.19;93.90;98096.41;10419794;28;20115;-58
2022/10/09 04:18:06;;;;;;;29.42;22.75;;;;;;;6.18;94.00;98093.81;10419880;28;20056;-59
2022/10/09 04:23:05;;;;;;;33.35;22.60;;;;;;;6.16;93.49;98093.78;10420188;28;20048;-59
2022/10/09 04:28:04;;;;;;;27.23;22.05;;;;;;;6.12;93.81;98091.97;10407826;28;20120;-59
2022/10/09 04:33:03;;;;;;;28.50;21.73;;;;;;;6.07;93.28;98098.75;10401326;28;20028;-59
2022/10/09 04:38:02;;;;;;;27.85;23.30;;;;;;;6.02;93.70;98089.16;10419953;28;20024;-59
2022/10/09 04:43:01;;;;;;;24.38;19.77;;;;;;;5.95;94.39;98072.69;10419682;28;20406;-59
2022/10/09 04:48:00;;;;;;;;;;;;;;;6.03;94.12;98096.91;10419249;28;20509;-58
2022/10/09 04:52:59;;;;;;;24.08;19.20;;;;;;;5.99;93.94;98102.84;10418609;28;20364;-58
2022/10/09 04:57:58;;;;;;;26.55;20.10;;;;;;;5.97;94.49;98115.66;10418523;28;20107;-58
2022/10/09 05:02:57;;;;;;;33.63;25.95;;;;;;;5.93;94.41;98111.31;10419471;28;20116;-58
2022/10/09 05:07:56;;;;;;;36.33;26.00;;;;;;;6.00;94.24;98112.31;10418474;28;20071;-58
2022/10/09 05:12:55;;;;;;;33.25;24.85;;;;;;;6.05;94.95;98110.72;10414508;28;20111;-58
2022/10/09 05:17:54;;;;;;;37.47;27.27;;;;;;;6.12;94.68;98114.31;10414225;28;20048;-58
2022/10/09 05:22:52;;;;;;;35.55;25.60;;;;;;;6.07;95.09;98114.19;10414016;28;20089;-58
2022/10/09 05:27:51;;;;;;;27.88;21.35;;;;;;;6.09;94.74;98124.50;10412491;28;20028;-58
2022/10/09 05:32:50;;;;;;;30.00;23.73;;;;;;;6.06;95.43;98112.44;10414255;28;20039;-58
2022/10/09 05:37:49;;;;;;;33.53;25.63;;;;;;;6.30;95.08;98132.72;10411965;28;20050;-59
2022/10/09 05:42:49;;;;;;;33.17;25.73;;;;;;;6.45;94.53;98147.66;10411078;28;20036;-58
2022/10/09 05:47:48;;;;;;;36.05;27.05;;;;;;;6.53;95.51;98140.09;10411524;28;20071;-58
2022/10/09 05:52:47;;;;;;;34.88;27.73;;;;;;;6.74;94.41;98140.53;10413032;28;20108;-58
2022/10/09 05:57:46;;;;;;;43.55;32.28;;;;;;;6.95;94.27;98139.22;10412571;28;20111;-58
2022/10/09 06:02:44;;;;;;;55.67;42.58;;;;;;;7.11;94.75;98140.38;10413103;28;20107;-58
2022/10/09 06:07:45;;;;;;;70.35;50.50;;;;;;;7.32;94.10;98155.41;10412755;28;20036;-58
2022/10/09 06:12:44;;;;;;;66.00;46.75;;;;;;;7.48;93.77;98147.13;10412680;28;20060;-58
2022/10/09 06:17:43;;;;;;;62.88;44.22;;;;;;;7.66;92.98;98159.47;10412612;28;20107;-58
2022/10/09 06:22:42;;;;;;;51.35;38.38;;;;;;;7.77;93.36;98159.66;10412478;28;20039;-58
2022/10/09 06:27:41;;;;;;;52.47;37.08;;;;;;;7.95;93.13;98175.47;10411544;28;20107;-58
2022/10/09 06:32:41;;;;;;;45.97;38.05;;;;;;;8.17;93.27;98173.22;10412993;28;20080;-58
2022/10/09 06:37:40;;;;;;;48.00;35.65;;;;;;;8.37;92.57;98179.56;10411594;28;20082;-58
2022/10/09 06:42:39;;;;;;;44.72;34.30;;;;;;;8.56;92.68;98180.69;10412026;28;20040;-58
2022/10/09 06:47:38;;;;;;;43.65;32.65;;;;;;;8.73;92.31;98180.91;10410964;28;20059;-58
2022/10/09 06:52:37;;;;;;;40.78;32.03;;;;;;;8.84;92.47;98176.75;10411927;28;20033;-58
2022/10/09 06:57:36;;;;;;;41.35;33.40;;;;;;;9.07;92.97;98178.75;10411187;28;20062;-58
2022/10/09 07:02:36;;;;;;;46.45;35.63;;;;;;;9.25;92.64;98176.34;10411162;28;20038;-58
2022/10/09 07:07:38;;;;;;;43.97;33.30;;;;;;;9.44;92.45;98180.06;10410754;28;20080;-59
2022/10/09 07:12:38;;;;;;;43.13;31.23;;;;;;;9.69;92.21;98180.28;10415018;28;20059;-58
2022/10/09 07:17:37;;;;;;;41.22;31.60;;;;;;;9.88;92.25;98178.72;10414644;28;20084;-58
2022/10/09 07:22:35;;;;;;;46.17;33.80;;;;;;;9.98;92.21;98162.41;10414839;28;20101;-59
2022/10/09 07:27:34;;;;;;;40.60;32.00;;;;;;;10.20;91.65;98181.56;10414385;28;20043;-58
2022/10/09 07:32:33;;;;;;;38.53;29.67;;;;;;;10.43;91.75;98178.28;10414257;28;20024;-58
2022/10/09 07:37:32;;;;;;;38.13;30.48;;;;;;;10.66;91.48;98179.28;10413645;28;20399;-59
2022/10/09 07:42:31;;;;;;;37.70;29.95;;;;;;;10.95;90.53;98176.00;10414418;28;20040;-59
2022/10/09 07:47:30;;;;;;;33.67;26.90;;;;;;;11.23;89.07;98183.00;10415351;28;20450;-59
2022/10/09 07:52:29;;;;;;;30.25;26.90;;;;;;;11.44;88.31;98177.00;10421566;28;20024;-59
2022/10/09 07:57:28;;;;;;;33.10;26.83;;;;;;;11.69;88.37;98171.88;10421632;28;20021;-58
2022/10/09 08:02:27;;;;;;;34.85;28.50;;;;;;;11.98;87.44;98173.63;10421130;28;20139;-58
2022/10/09 08:07:26;;;;;;;28.77;25.67;;;;;;;12.26;87.09;98175.31;10420885;28;20045;-59
2022/10/09 08:12:25;;;;;;;29.95;25.58;;;;;;;12.61;86.28;98177.03;10417724;28;20039;-58
2022/10/09 08:17:24;;;;;;;29.13;22.98;;;;;;;12.91;85.48;98168.28;10417246;28;20503;-59
2022/10/09 08:22:23;;;;;;;24.23;21.73;;;;;;;13.15;83.71;98163.81;10416763;28;20064;-59
2022/10/09 08:27:22;;;;;;;20.98;18.73;;;;;;;13.40;81.55;98161.06;10417206;28;20116;-59
2022/10/09 08:32:21;;;;;;;21.77;18.27;;;;;;;13.73;80.81;98165.25;10416621;28;20044;-59
2022/10/09 08:37:20;;;;;;;21.33;18.80;;;;;;;13.99;79.96;98160.72;10415999;28;20036;-59
2022/10/09 08:42:35;;;;;;;18.30;16.23;;;;;;;14.26;77.38;98150.03;10416498;28;20399;-59
2022/10/09 08:47:48;;;;;;;22.25;15.88;;;;;;;14.52;76.44;98149.75;10415942;28;20082;-59
2022/10/09 08:52:59;;;;;;;17.85;14.50;;;;;;;14.81;75.38;98152.09;10415705;28;20060;-59
2022/10/09 08:58:04;;;;;;;15.15;11.90;;;;;;;15.07;73.01;98143.94;10416009;28;20068;-59
2022/10/09 09:03:27;;;;;;;18.52;11.35;;;;;;;15.38;72.10;98146.16;10414940;28;20056;-59
2022/10/09 09:08:43;;;;;;;14.63;11.38;;;;;;;15.66;70.96;98139.63;10414689;28;20067;-59
2022/10/09 09:14:06;;;;;;;14.63;9.73;;;;;;;15.91;68.04;98139.28;10414883;28;20071;-59
2022/10/09 09:19:23;;;;;;;14.15;10.10;;;;;;;16.13;66.63;98133.69;10414834;28;20511;-59
2022/10/09 09:24:50;;;;;;;12.85;8.30;;;;;;;16.37;62.93;98128.03;10414685;28;20067;-59
2022/10/09 09:29:56;;;;;;;11.90;8.20;;;;;;;16.60;63.00;98122.31;10409275;28;20068;-59
2022/10/09 09:35:10;;;;;;;10.55;6.80;;;;;;;16.92;61.07;98113.84;10414485;28;20052;-59
2022/10/09 09:40:15;;;;;;;11.15;7.50;;;;;;;17.15;58.07;98117.75;10429346;28;20055;-59
2022/10/09 09:45:20;;;;;;;10.50;6.68;;;;;;;17.50;56.96;98116.13;10413995;28;20064;-59
2022/10/09 09:50:41;;;;;;;11.20;6.90;;;;;;;17.80;56.48;98122.44;10389479;28;20071;-59
2022/10/09 09:55:41;;;;;;;8.07;5.50;;;;;;;17.94;55.49;98116.81;10372595;28;20075;-59
2022/10/09 10:00:40;;;;;;;7.38;4.97;;;;;;;18.04;54.13;98109.59;10371541;28;20064;-59
2022/10/09 10:05:40;;;;;;;8.15;4.60;;;;;;;18.19;52.34;98120.53;10371703;28;20040;-59
2022/10/09 10:10:47;;;;;;;6.97;4.90;;;;;;;18.43;51.42;98117.31;10373632;28;20068;-59
2022/10/09 10:15:54;;;;;;;10.13;4.93;;;;;;;18.73;51.18;98110.41;10375007;28;20072;-59
2022/10/09 10:21:00;;;;;;;8.27;4.68;;;;;;;18.88;50.41;98109.97;10377118;28;20076;-59
2022/10/09 10:26:05;;;;;;;6.95;5.13;;;;;;;18.95;50.14;98110.66;10416696;28;20545;-59
2022/10/09 10:31:12;;;;;;;5.40;4.47;;;;;;;19.13;50.29;98112.72;10415281;28;20512;-59
2022/10/09 10:36:11;;;;;;;8.48;4.85;;;;;;;19.35;50.60;98105.06;10415177;28;20452;-59
2022/10/09 10:41:28;;;;;;;6.82;5.30;;;;;;;19.53;49.83;98103.59;10414244;28;20027;-59
2022/10/09 10:46:47;;;;;;;8.63;5.45;;;;;;;19.66;49.80;98089.19;10415136;28;20072;-59
2022/10/09 10:51:52;;;;;;;;;;;;;;;19.81;48.68;98093.09;10414329;28;20903;-59
2022/10/09 10:57:02;;;;;;;6.45;4.57;;;;;;;19.84;47.50;98089.50;10414299;28;19955;-59
2022/10/09 11:02:37;;;;;;;6.13;4.43;;;;;;;19.99;47.29;98085.50;10415225;28;20060;-59
2022/10/09 11:07:45;;;;;;;4.75;4.20;;;;;;;20.18;47.96;98073.41;10414330;28;20478;-59
2022/10/09 11:12:49;;;;;;;7.78;5.10;;;;;;;20.36;46.85;98065.78;10411104;28;20056;-59
2022/10/09 11:17:56;;;;;;;7.03;4.60;;;;;;;20.60;47.07;98056.16;10411194;28;20460;-59
2022/10/09 11:23:12;;;;;;;5.43;4.38;;;;;;;20.75;46.53;98049.44;10413146;28;20079;-59
2022/10/09 11:28:17;;;;;;;5.40;4.18;;;;;;;20.73;45.69;98046.00;10418852;28;20064;-59
2022/10/09 11:33:34;;;;;;;8.25;5.45;;;;;;;20.88;45.51;98029.59;10419055;28;20467;-59
2022/10/09 11:38:50;;;;;;;5.88;4.50;;;;;;;21.10;45.77;98019.94;10418595;28;20075;-59
2022/10/09 11:44:06;;;;;;;7.38;4.80;;;;;;;21.18;45.14;98016.16;10418556;28;20772;-59
2022/10/09 11:49:33;;;;;;;6.68;4.88;;;;;;;20.92;45.33;98020.66;10418028;28;20502;-59
2022/10/09 11:54:33;;;;;;;8.50;4.85;;;;;;;21.01;44.59;98011.50;10419076;28;20439;-59
2022/10/09 11:59:36;;;;;;;5.88;4.25;;;;;;;21.12;43.59;98012.84;10417615;28;20499;-60
2022/10/09 12:04:35;;;;;;;6.30;4.68;;;;;;;21.31;44.04;98012.09;10417984;28;20091;-59
2022/10/09 12:09:38;;;;;;;5.07;4.22;;;;;;;21.57;44.63;98003.16;10417835;28;20468;-59
2022/10/09 12:14:37;;;;;;;6.55;4.30;;;;;;;21.73;44.77;98009.50;10416968;28;20059;-59
2022/10/09 12:19:38;;;;;;;7.28;4.60;;;;;;;;;;10416765;28;20049;-59
2022/10/09 12:24:41;;;;;;;5.80;4.32;;;;;;;21.93;42.34;98006.00;10416897;28;20499;-59
2022/10/09 12:29:49;;;;;;;7.03;4.70;;;;;;;21.86;42.54;97986.06;10416970;28;20060;-59
2022/10/09 12:34:50;;;;;;;6.97;4.90;;;;;;;21.70;41.82;97993.75;10412123;28;20055;-59
2022/10/09 12:39:49;;;;;;;9.52;5.78;;;;;;;21.57;42.39;97995.22;10416658;28;20064;-59
2022/10/09 12:44:51;;;;;;;8.90;5.90;;;;;;;21.55;42.65;97991.78;10415987;28;20052;-59
2022/10/09 12:50:17;;;;;;;7.43;5.20;;;;;;;21.54;42.60;97988.25;10415692;28;20064;-59
2022/10/09 12:55:28;;;;;;;11.55;6.22;;;;;;;21.58;42.91;97998.72;10415616;28;20047;-59
2022/10/09 13:00:30;;;;;;;18.67;5.10;;;;;;;21.43;41.82;97998.44;10416125;28;20071;-59
2022/10/09 13:05:37;;;;;;;8.25;5.00;;;;;;;21.78;41.33;97998.75;10415038;28;20063;-59
2022/10/09 13:10:36;;;;;;;6.18;5.18;;;;;;;21.86;41.81;97998.41;10415608;28;20071;-59
2022/10/09 13:15:36;;;;;;;6.18;5.10;;;;;;;21.73;41.83;97990.13;10415456;28;20076;-59
2022/10/09 13:20:35;;;;;;;6.00;4.80;;;;;;;21.82;41.24;97997.66;10414353;28;20132;-59
2022/10/09 13:25:37;;;;;;;8.10;4.88;;;;;;;21.85;40.39;97994.91;10419388;28;20181;-59
2022/10/09 13:30:36;;;;;;;7.80;4.97;;;;;;;21.90;40.11;98000.00;10416900;28;20059;-59
2022/10/09 13:35:35;;;;;;;9.98;5.93;;;;;;;22.00;40.66;98000.50;10417506;28;20132;-59
2022/10/09 13:40:34;;;;;;;6.40;4.80;;;;;;;22.06;40.15;98005.50;10413852;28;20418;-59
2022/10/09 13:45:33;;;;;;;7.28;4.90;;;;;;;22.22;39.93;98001.25;10413009;28;20031;-60
2022/10/09 13:50:32;;;;;;;8.32;5.20;;;;;;;22.22;40.23;98006.53;10413443;28;20094;-59
2022/10/09 13:55:31;;;;;;;8.50;5.13;;;;;;;22.16;40.25;98002.41;10413093;28;20020;-59
2022/10/09 14:00:30;;;;;;;8.50;4.90;;;;;;;22.15;40.36;98000.66;10413143;28;20088;-59
2022/10/09 14:05:29;;;;;;;7.00;5.18;;;;;;;22.15;40.98;97999.81;10412658;28;20052;-59
2022/10/09 14:10:28;;;;;;;8.77;5.35;;;;;;;22.03;41.37;98003.00;10412459;28;20476;-59
2022/10/09 14:15:27;;;;;;;7.85;5.07;;;;;;;21.88;41.15;98002.69;10412540;28;20406;-59
2022/10/09 14:20:27;;;;;;;10.60;5.00;;;;;;;21.86;41.39;98004.53;10412217;28;20025;-59
2022/10/09 14:25:26;;;;;;;8.18;4.57;;;;;;;21.80;41.54;98004.78;10411672;28;20519;-59
2022/10/09 14:30:25;;;;;;;9.82;5.43;;;;;;;21.72;42.33;98012.19;10412607;28;20063;-59
2022/10/09 14:35:24;;;;;;;6.22;4.90;;;;;;;21.36;42.39;98004.88;10411701;28;20025;-59
2022/10/09 14:40:23;;;;;;;7.78;5.53;;;;;;;21.38;42.83;98003.00;10412268;28;20048;-59
2022/10/09 14:45:22;;;;;;;10.05;5.10;;;;;;;21.32;43.23;98011.19;10409694;28;20028;-59
2022/10/09 14:50:21;;;;;;;8.30;5.35;;;;;;;21.13;43.77;98019.81;10407746;28;20036;-59
2022/10/09 14:55:20;;;;;;;5.47;4.97;;;;;;;20.99;44.06;98014.22;10407556;28;20016;-59
2022/10/09 15:00:19;;;;;;;10.32;6.50;;;;;;;20.98;44.77;98012.50;10409638;28;20522;-59
2022/10/09 15:05:18;;;;;;;10.15;6.60;;;;;;;20.84;45.39;98028.00;10410419;28;20060;-59
2022/10/09 15:10:17;;;;;;;10.07;6.68;;;;;;;20.78;45.86;98023.81;10408888;28;20034;-59
2022/10/09 15:15:16;;;;;;;10.68;7.43;;;;;;;20.63;46.86;98034.94;10409627;28;20028;-59
2022/10/09 15:20:15;;;;;;;9.63;6.78;;;;;;;20.48;47.25;98044.28;10408705;28;20735;-59
2022/10/09 15:25:15;;;;;;;10.25;6.90;;;;;;;20.25;47.66;98045.91;10379267;28;20592;-59
2022/10/09 15:30:14;;;;;;;9.52;7.10;;;;;;;20.05;48.39;98057.16;10408350;28;20474;-59
2022/10/09 15:35:13;;;;;;;11.95;7.55;;;;;;;19.81;48.47;98061.50;10410245;28;20394;-59
2022/10/09 15:40:12;;;;;;;13.20;8.23;;;;;;;19.70;48.70;98068.00;10408250;28;20098;-59
2022/10/09 15:45:11;;;;;;;15.45;9.38;;;;;;;19.53;49.13;98066.75;10410188;28;20059;-59
2022/10/09 15:50:10;;;;;;;41.28;37.03;;;;;;;19.31;49.50;98071.00;10410507;28;20093;-59
2022/10/09 15:55:09;;;;;;;37.60;25.80;;;;;;;19.13;50.92;98065.38;10409703;28;20047;-59
2022/10/09 16:00:08;;;;;;;48.47;34.65;;;;;;;18.88;52.55;98083.69;10409960;28;20033;-59
2022/10/09 16:05:08;;;;;;;38.10;24.13;;;;;;;18.55;53.86;98086.31;10410308;28;20491;-59
2022/10/09 16:10:07;;;;;;;34.70;21.60;;;;;;;18.26;54.63;98088.88;10413345;28;20075;-59
2022/10/09 16:15:06;;;;;;;27.33;20.40;;;;;;;18.01;55.14;98104.41;10417246;28;20071;-59
2022/10/09 16:20:06;;;;;;;29.35;17.45;;;;;;;17.78;56.27;98108.47;10417127;28;20099;-59
2022/10/09 16:25:05;;;;;;;31.60;20.77;;;;;;;17.53;57.16;98116.03;10414452;28;20076;-59
2022/10/09 16:30:05;;;;;;;26.52;18.42;;;;;;;17.30;58.54;98108.69;10416215;28;20071;-59
2022/10/09 16:35:04;;;;;;;21.85;16.25;;;;;;;17.10;59.20;98124.88;10416985;28;20056;-59
2022/10/09 16:40:04;;;;;;;22.88;16.38;;;;;;;16.84;60.36;98134.13;10415614;28;20067;-59
2022/10/09 16:45:03;;;;;;;32.20;24.88;;;;;;;16.58;61.92;98141.59;10415717;28;20076;-59
2022/10/09 16:50:03;;;;;;;31.08;20.58;;;;;;;16.44;62.85;98155.81;10416978;28;20068;-58
2022/10/09 16:55:02;;;;;;;25.70;17.10;;;;;;;16.27;63.17;98150.00;10415418;28;20068;-59
2022/10/09 17:00:03;;;;;;;26.33;17.65;;;;;;;16.07;63.47;98153.00;10415274;28;20491;-59
2022/10/09 17:05:02;;;;;;;20.83;16.63;;;;;;;15.94;64.48;98168.00;10416313;28;20071;-59
2022/10/09 17:10:01;;;;;;;25.08;20.25;;;;;;;15.84;64.91;98174.28;10414646;28;20079;-59
2022/10/09 17:14:59;;;;;;;;;;;;;;;15.74;66.14;98178.78;10415434;28;20107;-59
2022/10/09 17:19:58;;;;;;;25.60;15.43;;;;;;;15.61;67.29;98193.75;10413219;28;19970;-59
2022/10/09 17:24:57;;;;;;;;;;;;;;;15.47;68.54;98190.47;10414283;28;20037;-59
2022/10/09 17:29:56;;;;;;;37.13;25.10;;;;;;;15.40;69.69;98199.28;10413952;28;20003;-59
2022/10/09 17:34:55;;;;;;;;;;;;;;;15.36;69.85;98197.59;10415141;28;20034;-59
2022/10/09 17:39:54;;;;;;;31.13;21.35;;;;;;;15.38;69.82;98203.69;10413549;28;19913;-59
2022/10/09 17:44:52;;;;;;;32.30;23.75;;;;;;;15.31;69.78;98204.66;10413221;28;20036;-59
2022/10/09 17:49:53;;;;;;;;;;;;;;;15.27;70.14;98209.03;10414188;28;20541;-59
2022/10/09 17:54:53;;;;;;;40.42;24.17;;;;;;;15.20;70.57;98217.84;10411589;28;19955;-59
2022/10/09 17:59:52;;;;;;;39.13;23.85;;;;;;;15.14;71.02;98220.53;10412404;28;20110;-59
2022/10/09 18:04:56;;;;;;;;;;;;;;;15.09;71.60;98228.44;10413878;28;20028;-59
2022/10/09 18:09:54;;;;;;;26.00;19.13;;;;;;;15.00;71.72;98233.78;10412606;28;19959;-59
2022/10/09 18:14:53;;;;;;;;;;;;;;;14.90;72.40;98234.75;10412636;28;20036;-59
2022/10/09 18:19:52;;;;;;;21.42;16.25;;;;;;;14.81;72.39;98236.56;10411879;28;19926;-59
2022/10/09 18:24:51;;;;;;;22.92;16.88;;;;;;;14.66;73.07;98231.44;10411443;28;20536;-59
2022/10/09 18:29:50;;;;;;;21.45;16.20;;;;;;;14.74;73.10;98254.94;10409899;28;20040;-59
2022/10/09 18:34:49;;;;;;;;;;;;;;;14.75;73.71;98241.84;10412058;28;20541;-59
2022/10/09 18:39:48;;;;;;;31.40;26.20;;;;;;;14.77;74.08;98245.31;10379013;28;20415;-59
2022/10/09 18:44:47;;;;;;;;;;;;;;;14.76;74.38;98243.59;10370813;28;20460;-59
2022/10/09 18:49:50;;;;;;;35.63;24.75;;;;;;;14.73;74.34;98248.88;10370529;28;20439;-59
2022/10/09 18:54:51;;;;;;;31.38;22.13;;;;;;;14.73;74.13;98248.88;10370140;28;20072;-59
2022/10/09 18:59:53;;;;;;;26.45;19.25;;;;;;;14.74;74.40;98261.03;10402293;28;20511;-59
2022/10/09 19:04:56;;;;;;;42.85;32.53;;;;;;;14.60;75.37;98252.44;10412410;28;20087;-58
2022/10/09 19:09:55;;;;;;;39.85;29.35;;;;;;;14.58;75.00;98260.25;10410146;28;20083;-58
2022/10/09 19:14:54;;;;;;;;;;;;;;;14.51;76.28;98255.13;10411986;28;20028;-58
2022/10/09 19:19:53;;;;;;;32.58;25.92;;;;;;;14.48;76.10;98268.22;10391077;28;19954;-58
2022/10/09 19:24:51;;;;;;;32.97;27.20;;;;;;;14.44;76.54;98275.19;10404474;28;20032;-58
2022/10/09 19:29:50;;;;;;;35.15;25.90;;;;;;;14.37;76.81;98269.16;10409073;28;20040;-58
2022/10/09 19:34:50;;;;;;;32.97;24.90;;;;;;;14.39;77.03;98282.19;10411378;28;20112;-58
2022/10/09 19:39:49;;;;;;;;;;;;;;;14.33;77.44;98284.84;10410988;28;20065;-58
2022/10/09 19:44:48;;;;;;;44.13;32.13;;;;;;;14.30;77.70;98295.31;10414109;28;19955;-58
2022/10/09 19:49:47;;;;;;;39.25;29.98;;;;;;;14.27;78.38;98301.44;10418632;28;20035;-59
2022/10/09 19:54:46;;;;;;;43.38;31.40;;;;;;;14.23;78.51;98310.16;10418399;28;20029;-58
2022/10/09 19:59:46;;;;;;;39.88;28.52;;;;;;;14.23;78.96;98310.16;10417523;28;20028;-58
2022/10/09 20:04:47;;;;;;;34.97;27.20;;;;;;;14.25;79.00;98305.78;10417649;28;20499;-58
2022/10/09 20:09:46;;;;;;;40.42;30.10;;;;;;;14.25;78.68;98305.78;10417176;28;20507;-58
2022/10/09 20:14:45;;;;;;;41.33;31.15;;;;;;;14.22;78.98;98313.66;10417379;28;20451;-58
2022/10/09 20:19:44;;;;;;;37.05;26.98;;;;;;;14.15;78.99;98315.44;10416625;28;20048;-58
2022/10/09 20:24:43;;;;;;;28.08;22.35;;;;;;;14.03;79.50;98312.00;10417028;28;20028;-58
2022/10/09 20:29:42;;;;;;;29.48;22.98;;;;;;;13.90;79.56;98311.22;10416474;28;20059;-59
2022/10/09 20:34:41;;;;;;;34.67;25.80;;;;;;;13.77;80.09;98326.06;10416267;28;20036;-58
2022/10/09 20:39:40;;;;;;;32.75;24.83;;;;;;;13.64;80.13;98321.81;10416959;28;20093;-58
2022/10/09 20:44:39;;;;;;;33.92;25.50;;;;;;;13.53;80.83;98334.84;10415755;28;20090;-58
2022/10/09 20:49:38;;;;;;;34.50;25.88;;;;;;;13.40;81.30;98340.94;10415998;28;20071;-58
2022/10/09 20:54:37;;;;;;;35.05;28.20;;;;;;;13.28;82.38;98341.84;10415760;28;20035;-58
2022/10/09 20:59:36;;;;;;;36.83;29.38;;;;;;;13.22;82.81;98339.28;10415391;28;20028;-58
2022/10/09 21:04:35;;;;;;;32.70;26.73;;;;;;;13.05;84.16;98349.75;10415403;28;20044;-58
2022/10/09 21:09:35;;;;;;;36.17;25.73;;;;;;;12.93;84.75;98340.19;10415484;28;20683;-58
2022/10/09 21:14:35;;;;;;;36.88;29.17;;;;;;;12.84;85.04;98346.28;10415066;28;20064;-58
2022/10/09 21:19:34;;;;;;;42.85;31.58;;;;;;;12.81;84.89;98343.66;10414762;28;20087;-58
2022/10/09 21:24:33;;;;;;;50.63;33.78;;;;;;;12.78;84.87;98345.41;10414728;28;20024;-58
2022/10/09 21:29:32;;;;;;;39.67;29.55;;;;;;;12.69;85.16;98341.91;10414218;28;20032;-58
2022/10/09 21:34:31;;;;;;;40.15;29.48;;;;;;;12.62;85.39;98342.78;10414532;28;20038;-58
2022/10/09 21:39:30;;;;;;;36.92;29.48;;;;;;;12.58;85.67;98348.88;10414208;28;20407;-58
2022/10/09 21:44:29;;;;;;;43.17;31.15;;;;;;;12.51;85.98;98341.94;10413197;28;20067;-58
2022/10/09 21:49:28;;;;;;;45.05;32.78;;;;;;;12.40;86.38;98343.66;10413489;28;20036;-58
2022/10/09 21:54:27;;;;;;;45.75;33.65;;;;;;;12.30;86.70;98345.38;10413755;28;20060;-58
2022/10/09 21:59:26;;;;;;;43.05;33.53;;;;;;;12.24;87.07;98343.59;10412676;28;20072;-58
2022/10/09 22:04:25;;;;;;;;;;;;;;;12.19;87.00;98341.88;10412984;28;20557;-58
2022/10/09 22:09:24;;;;;;;38.67;29.42;;;;;;;12.13;87.60;98344.44;10413147;28;20031;-58
2022/10/09 22:14:23;;;;;;;45.88;31.90;;;;;;;12.04;87.69;98340.06;10408105;28;20071;-58
2022/10/09 22:19:22;;;;;;;37.13;30.13;;;;;;;11.98;87.81;98342.69;10408903;28;20347;-58
2022/10/09 22:24:21;;;;;;;39.17;29.65;;;;;;;11.92;88.08;98345.25;10408507;28;20035;-58
2022/10/09 22:29:20;;;;;;;41.60;31.45;;;;;;;11.84;88.15;98346.09;10410691;28;20040;-58
2022/10/09 22:34:19;;;;;;;39.42;30.27;;;;;;;11.76;88.54;98345.22;10411441;28;20494;-58
2022/10/09 22:39:18;;;;;;;38.78;28.52;;;;;;;11.71;88.27;98340.84;10412067;28;20731;-58
2022/10/09 22:44:17;;;;;;;36.72;28.20;;;;;;;11.50;88.96;98320.81;10411932;28;20056;-58
2022/10/09 22:49:17;;;;;;;37.83;27.75;;;;;;;11.55;89.56;98342.50;10411429;28;20028;-58
2022/10/09 22:54:17;;;;;;;47.55;34.25;;;;;;;11.36;90.59;98346.75;10411267;28;20083;-58
2022/10/09 22:59:17;;;;;;;52.08;38.65;;;;;;;11.24;91.21;98350.13;10411152;28;20064;-58
2022/10/09 23:04:17;;;;;;;45.58;35.22;;;;;;;11.05;91.96;98349.16;10410763;28;20079;-58
2022/10/09 23:09:16;;;;;;;42.08;32.33;;;;;;;10.97;93.17;98356.91;10412199;28;20082;-58
2022/10/09 23:14:15;;;;;;;;;;;;;;;10.96;93.41;98367.28;10411185;28;20478;-58